sensor_id;sensor_type;location;lat;lon;timestamp;P1;durP1;ratioP1;P2;durP2;ratioP2
34711;SDS011;20941;42.408;25.634;2022-08-19T00:01:22;11.20;;;7.68;;
34711;SDS011;20941;42.408;25.634;2022-08-19T00:03:48;11.77;;;8.05;;
34711;SDS011;20941;42.408;25.634;2022-08-19T00:06:14;8.18;;;6.85;;
34711;SDS011;20941;42.408;25.634;2022-08-19T00:08:40;9.38;;;6.88;;
34711;SDS011;20941;42.408;25.634;2022-08-19T00:11:05;9.65;;;7.18;;
34711;SDS011;20941;42.408;25.634;2022-08-19T00:13:31;12.05;;;6.93;;
34711;SDS011;20941;42.408;25.634;2022-08-19T00:15:57;10.75;;;7.30;;
34711;SDS011;20941;42.408;25.634;2022-08-19T00:18:23;10.07;;;6.90;;
34711;SDS011;20941;42.408;25.634;2022-08-19T00:20:49;11.70;;;7.35;;
34711;SDS011;20941;42.408;25.634;2022-08-19T00:23:14;9.63;;;7.30;;
34711;SDS011;20941;42.408;25.634;2022-08-19T00:25:41;10.23;;;7.50;;
34711;SDS011;20941;42.408;25.634;2022-08-19T00:28:06;11.07;;;7.07;;
34711;SDS011;20941;42.408;25.634;2022-08-19T00:30:32;7.97;;;6.95;;
34711;SDS011;20941;42.408;25.634;2022-08-19T00:32:57;13.55;;;7.57;;
34711;SDS011;20941;42.408;25.634;2022-08-19T00:35:23;9.15;;;7.50;;
34711;SDS011;20941;42.408;25.634;2022-08-19T00:37:49;11.10;;;7.90;;
34711;SDS011;20941;42.408;25.634;2022-08-19T00:40:15;9.07;;;7.47;;
34711;SDS011;20941;42.408;25.634;2022-08-19T00:42:42;9.82;;;7.85;;
34711;SDS011;20941;42.408;25.634;2022-08-19T00:45:10;9.65;;;8.10;;
34711;SDS011;20941;42.408;25.634;2022-08-19T00:47:38;12.77;;;7.57;;
34711;SDS011;20941;42.408;25.634;2022-08-19T00:50:03;11.23;;;7.43;;
34711;SDS011;20941;42.408;25.634;2022-08-19T00:52:31;10.07;;;7.30;;
34711;SDS011;20941;42.408;25.634;2022-08-19T00:55:00;11.20;;;7.18;;
34711;SDS011;20941;42.408;25.634;2022-08-19T00:57:36;11.40;;;7.47;;
34711;SDS011;20941;42.408;25.634;2022-08-19T01:00:09;9.75;;;6.78;;
34711;SDS011;20941;42.408;25.634;2022-08-19T01:02:38;8.35;;;7.03;;
34711;SDS011;20941;42.408;25.634;2022-08-19T01:05:05;8.15;;;7.13;;
34711;SDS011;20941;42.408;25.634;2022-08-19T01:07:34;10.30;;;7.50;;
34711;SDS011;20941;42.408;25.634;2022-08-19T01:10:02;12.80;;;7.75;;
34711;SDS011;20941;42.408;25.634;2022-08-19T01:12:28;9.70;;;7.20;;
34711;SDS011;20941;42.408;25.634;2022-08-19T01:14:54;10.30;;;7.45;;
34711;SDS011;20941;42.408;25.634;2022-08-19T01:17:20;8.70;;;7.55;;
34711;SDS011;20941;42.408;25.634;2022-08-19T01:19:46;9.98;;;7.95;;
34711;SDS011;20941;42.408;25.634;2022-08-19T01:24:56;9.60;;;7.50;;
34711;SDS011;20941;42.408;25.634;2022-08-19T01:27:22;10.27;;;7.88;;
34711;SDS011;20941;42.408;25.634;2022-08-19T01:29:47;8.75;;;6.55;;
34711;SDS011;20941;42.408;25.634;2022-08-19T01:32:14;9.18;;;7.63;;
34711;SDS011;20941;42.408;25.634;2022-08-19T01:34:41;9.50;;;7.55;;
34711;SDS011;20941;42.408;25.634;2022-08-19T01:37:08;12.40;;;7.50;;
34711;SDS011;20941;42.408;25.634;2022-08-19T01:39:36;9.02;;;7.40;;
34711;SDS011;20941;42.408;25.634;2022-08-19T01:42:03;9.25;;;7.05;;
34711;SDS011;20941;42.408;25.634;2022-08-19T01:44:30;8.43;;;7.57;;
34711;SDS011;20941;42.408;25.634;2022-08-19T01:46:55;10.07;;;7.60;;
34711;SDS011;20941;42.408;25.634;2022-08-19T01:49:22;9.43;;;7.47;;
34711;SDS011;20941;42.408;25.634;2022-08-19T01:51:50;13.98;;;8.38;;
34711;SDS011;20941;42.408;25.634;2022-08-19T01:54:16;9.98;;;8.25;;
34711;SDS011;20941;42.408;25.634;2022-08-19T01:56:44;10.93;;;8.18;;
34711;SDS011;20941;42.408;25.634;2022-08-19T01:59:13;11.00;;;8.68;;
34711;SDS011;20941;42.408;25.634;2022-08-19T02:01:50;11.45;;;8.25;;
34711;SDS011;20941;42.408;25.634;2022-08-19T02:04:18;10.65;;;8.45;;
34711;SDS011;20941;42.408;25.634;2022-08-19T02:06:43;8.88;;;7.80;;
34711;SDS011;20941;42.408;25.634;2022-08-19T02:09:09;11.25;;;8.95;;
34711;SDS011;20941;42.408;25.634;2022-08-19T02:11:36;10.25;;;7.82;;
34711;SDS011;20941;42.408;25.634;2022-08-19T02:14:03;12.88;;;9.07;;
34711;SDS011;20941;42.408;25.634;2022-08-19T02:16:30;9.90;;;8.40;;
34711;SDS011;20941;42.408;25.634;2022-08-19T02:18:56;10.20;;;8.38;;
34711;SDS011;20941;42.408;25.634;2022-08-19T02:21:25;11.07;;;8.68;;
34711;SDS011;20941;42.408;25.634;2022-08-19T02:23:51;11.02;;;8.40;;
34711;SDS011;20941;42.408;25.634;2022-08-19T02:26:17;10.80;;;8.38;;
34711;SDS011;20941;42.408;25.634;2022-08-19T02:28:43;10.98;;;8.65;;
34711;SDS011;20941;42.408;25.634;2022-08-19T02:31:17;16.85;;;10.02;;
34711;SDS011;20941;42.408;25.634;2022-08-19T02:33:44;12.43;;;8.93;;
34711;SDS011;20941;42.408;25.634;2022-08-19T02:36:10;12.10;;;8.48;;
34711;SDS011;20941;42.408;25.634;2022-08-19T02:38:38;13.73;;;8.93;;
34711;SDS011;20941;42.408;25.634;2022-08-19T02:41:06;11.30;;;8.98;;
34711;SDS011;20941;42.408;25.634;2022-08-19T02:43:36;11.05;;;9.02;;
34711;SDS011;20941;42.408;25.634;2022-08-19T02:46:20;17.20;;;9.60;;
34711;SDS011;20941;42.408;25.634;2022-08-19T02:48:48;15.30;;;9.25;;
34711;SDS011;20941;42.408;25.634;2022-08-19T02:51:19;12.27;;;8.40;;
34711;SDS011;20941;42.408;25.634;2022-08-19T02:53:53;12.15;;;9.13;;
34711;SDS011;20941;42.408;25.634;2022-08-19T02:56:18;12.57;;;9.55;;
34711;SDS011;20941;42.408;25.634;2022-08-19T02:58:44;13.38;;;8.68;;
34711;SDS011;20941;42.408;25.634;2022-08-19T03:01:11;11.07;;;7.78;;
34711;SDS011;20941;42.408;25.634;2022-08-19T03:03:44;15.75;;;8.95;;
34711;SDS011;20941;42.408;25.634;2022-08-19T03:06:13;11.43;;;8.27;;
34711;SDS011;20941;42.408;25.634;2022-08-19T03:08:41;12.55;;;9.02;;
34711;SDS011;20941;42.408;25.634;2022-08-19T03:11:12;12.95;;;8.57;;
34711;SDS011;20941;42.408;25.634;2022-08-19T03:13:40;15.27;;;9.02;;
34711;SDS011;20941;42.408;25.634;2022-08-19T03:16:05;26.50;;;10.55;;
34711;SDS011;20941;42.408;25.634;2022-08-19T03:18:31;18.33;;;9.65;;
34711;SDS011;20941;42.408;25.634;2022-08-19T03:20:56;35.45;;;12.10;;
34711;SDS011;20941;42.408;25.634;2022-08-19T03:23:22;15.15;;;8.98;;
34711;SDS011;20941;42.408;25.634;2022-08-19T03:25:49;17.48;;;9.00;;
34711;SDS011;20941;42.408;25.634;2022-08-19T03:28:17;17.92;;;10.00;;
34711;SDS011;20941;42.408;25.634;2022-08-19T03:30:53;15.15;;;10.00;;
34711;SDS011;20941;42.408;25.634;2022-08-19T03:33:24;20.30;;;10.65;;
34711;SDS011;20941;42.408;25.634;2022-08-19T03:36:00;18.67;;;10.85;;
34711;SDS011;20941;42.408;25.634;2022-08-19T03:38:26;21.90;;;11.15;;
34711;SDS011;20941;42.408;25.634;2022-08-19T03:40:52;20.75;;;10.20;;
34711;SDS011;20941;42.408;25.634;2022-08-19T03:43:17;26.60;;;11.43;;
34711;SDS011;20941;42.408;25.634;2022-08-19T03:45:43;21.40;;;10.95;;
34711;SDS011;20941;42.408;25.634;2022-08-19T03:48:08;25.15;;;10.57;;
34711;SDS011;20941;42.408;25.634;2022-08-19T03:50:38;16.90;;;10.73;;
34711;SDS011;20941;42.408;25.634;2022-08-19T03:53:04;24.02;;;10.88;;
34711;SDS011;20941;42.408;25.634;2022-08-19T03:55:29;21.35;;;10.50;;
34711;SDS011;20941;42.408;25.634;2022-08-19T03:57:55;14.57;;;9.80;;
34711;SDS011;20941;42.408;25.634;2022-08-19T04:00:21;15.23;;;9.93;;
34711;SDS011;20941;42.408;25.634;2022-08-19T04:02:46;19.42;;;10.15;;
34711;SDS011;20941;42.408;25.634;2022-08-19T04:05:12;21.08;;;10.32;;
34711;SDS011;20941;42.408;25.634;2022-08-19T04:07:39;16.05;;;9.77;;
34711;SDS011;20941;42.408;25.634;2022-08-19T04:10:04;18.92;;;10.35;;
34711;SDS011;20941;42.408;25.634;2022-08-19T04:12:30;17.48;;;10.35;;
34711;SDS011;20941;42.408;25.634;2022-08-19T04:14:56;12.98;;;8.90;;
34711;SDS011;20941;42.408;25.634;2022-08-19T04:17:21;13.05;;;9.55;;
34711;SDS011;20941;42.408;25.634;2022-08-19T04:19:47;14.20;;;9.25;;
34711;SDS011;20941;42.408;25.634;2022-08-19T04:22:12;16.65;;;10.48;;
34711;SDS011;20941;42.408;25.634;2022-08-19T04:24:38;14.10;;;10.10;;
34711;SDS011;20941;42.408;25.634;2022-08-19T04:27:03;17.25;;;9.80;;
34711;SDS011;20941;42.408;25.634;2022-08-19T04:29:30;16.13;;;9.75;;
34711;SDS011;20941;42.408;25.634;2022-08-19T04:31:56;11.55;;;9.25;;
34711;SDS011;20941;42.408;25.634;2022-08-19T04:34:24;13.80;;;9.20;;
34711;SDS011;20941;42.408;25.634;2022-08-19T04:36:52;17.00;;;8.85;;
34711;SDS011;20941;42.408;25.634;2022-08-19T04:39:21;19.42;;;11.32;;
34711;SDS011;20941;42.408;25.634;2022-08-19T04:42:08;20.83;;;12.35;;
34711;SDS011;20941;42.408;25.634;2022-08-19T04:44:52;20.17;;;12.15;;
34711;SDS011;20941;42.408;25.634;2022-08-19T04:47:17;18.30;;;11.27;;
34711;SDS011;20941;42.408;25.634;2022-08-19T04:49:42;20.65;;;11.57;;
34711;SDS011;20941;42.408;25.634;2022-08-19T04:52:08;23.80;;;12.05;;
34711;SDS011;20941;42.408;25.634;2022-08-19T04:54:34;18.08;;;11.25;;
34711;SDS011;20941;42.408;25.634;2022-08-19T04:56:59;18.38;;;10.45;;
34711;SDS011;20941;42.408;25.634;2022-08-19T04:59:25;18.02;;;10.63;;
34711;SDS011;20941;42.408;25.634;2022-08-19T05:01:50;14.20;;;10.85;;
34711;SDS011;20941;42.408;25.634;2022-08-19T05:04:19;18.52;;;10.40;;
34711;SDS011;20941;42.408;25.634;2022-08-19T05:06:48;20.70;;;10.50;;
34711;SDS011;20941;42.408;25.634;2022-08-19T05:09:14;15.32;;;9.60;;
34711;SDS011;20941;42.408;25.634;2022-08-19T05:11:41;17.30;;;9.73;;
34711;SDS011;20941;42.408;25.634;2022-08-19T05:14:06;23.35;;;10.20;;
34711;SDS011;20941;42.408;25.634;2022-08-19T05:16:33;14.57;;;9.27;;
34711;SDS011;20941;42.408;25.634;2022-08-19T05:18:59;12.23;;;9.10;;
34711;SDS011;20941;42.408;25.634;2022-08-19T05:21:57;14.52;;;9.32;;
34711;SDS011;20941;42.408;25.634;2022-08-19T05:24:43;12.07;;;8.93;;
34711;SDS011;20941;42.408;25.634;2022-08-19T05:27:08;14.73;;;9.45;;
34711;SDS011;20941;42.408;25.634;2022-08-19T05:29:34;23.95;;;10.38;;
34711;SDS011;20941;42.408;25.634;2022-08-19T05:32:00;26.90;;;10.63;;
34711;SDS011;20941;42.408;25.634;2022-08-19T05:34:27;24.15;;;10.60;;
34711;SDS011;20941;42.408;25.634;2022-08-19T05:36:55;17.25;;;9.38;;
34711;SDS011;20941;42.408;25.634;2022-08-19T05:39:22;17.42;;;10.02;;
34711;SDS011;20941;42.408;25.634;2022-08-19T05:41:52;10.82;;;8.85;;
34711;SDS011;20941;42.408;25.634;2022-08-19T05:44:22;15.70;;;9.50;;
34711;SDS011;20941;42.408;25.634;2022-08-19T05:46:52;17.10;;;9.40;;
34711;SDS011;20941;42.408;25.634;2022-08-19T05:49:18;15.10;;;9.00;;
34711;SDS011;20941;42.408;25.634;2022-08-19T05:51:53;16.73;;;9.45;;
34711;SDS011;20941;42.408;25.634;2022-08-19T05:54:20;15.18;;;9.38;;
34711;SDS011;20941;42.408;25.634;2022-08-19T05:56:48;13.77;;;9.05;;
34711;SDS011;20941;42.408;25.634;2022-08-19T05:59:15;15.75;;;9.27;;
34711;SDS011;20941;42.408;25.634;2022-08-19T06:01:44;12.63;;;8.73;;
34711;SDS011;20941;42.408;25.634;2022-08-19T06:04:12;11.95;;;8.95;;
34711;SDS011;20941;42.408;25.634;2022-08-19T06:06:43;10.30;;;9.27;;
34711;SDS011;20941;42.408;25.634;2022-08-19T06:09:11;12.07;;;8.18;;
34711;SDS011;20941;42.408;25.634;2022-08-19T06:11:39;30.58;;;9.70;;
34711;SDS011;20941;42.408;25.634;2022-08-19T06:14:14;23.88;;;9.80;;
34711;SDS011;20941;42.408;25.634;2022-08-19T06:16:43;17.85;;;8.38;;
34711;SDS011;20941;42.408;25.634;2022-08-19T06:19:14;15.88;;;7.97;;
34711;SDS011;20941;42.408;25.634;2022-08-19T06:21:42;14.40;;;8.25;;
34711;SDS011;20941;42.408;25.634;2022-08-19T06:24:11;10.77;;;8.02;;
34711;SDS011;20941;42.408;25.634;2022-08-19T06:26:40;12.55;;;7.88;;
34711;SDS011;20941;42.408;25.634;2022-08-19T06:29:08;12.88;;;8.13;;
34711;SDS011;20941;42.408;25.634;2022-08-19T06:31:36;12.60;;;8.82;;
34711;SDS011;20941;42.408;25.634;2022-08-19T06:34:02;11.98;;;8.52;;
34711;SDS011;20941;42.408;25.634;2022-08-19T06:36:30;12.75;;;7.97;;
34711;SDS011;20941;42.408;25.634;2022-08-19T06:39:02;14.68;;;8.30;;
34711;SDS011;20941;42.408;25.634;2022-08-19T06:41:37;10.10;;;7.47;;
34711;SDS011;20941;42.408;25.634;2022-08-19T06:44:05;12.70;;;7.40;;
34711;SDS011;20941;42.408;25.634;2022-08-19T06:46:31;14.40;;;7.88;;
34711;SDS011;20941;42.408;25.634;2022-08-19T06:48:57;8.68;;;7.45;;
34711;SDS011;20941;42.408;25.634;2022-08-19T06:51:23;36.30;;;9.60;;
34711;SDS011;20941;42.408;25.634;2022-08-19T06:53:51;11.02;;;7.97;;
34711;SDS011;20941;42.408;25.634;2022-08-19T06:56:21;13.98;;;7.97;;
34711;SDS011;20941;42.408;25.634;2022-08-19T06:58:50;18.27;;;9.10;;
34711;SDS011;20941;42.408;25.634;2022-08-19T07:01:18;16.30;;;8.50;;
34711;SDS011;20941;42.408;25.634;2022-08-19T07:03:45;57.88;;;12.60;;
34711;SDS011;20941;42.408;25.634;2022-08-19T07:06:13;30.77;;;9.10;;
34711;SDS011;20941;42.408;25.634;2022-08-19T07:08:43;18.95;;;8.35;;
34711;SDS011;20941;42.408;25.634;2022-08-19T07:11:13;22.38;;;8.05;;
34711;SDS011;20941;42.408;25.634;2022-08-19T07:13:42;33.88;;;9.43;;
34711;SDS011;20941;42.408;25.634;2022-08-19T07:16:11;11.18;;;7.53;;
34711;SDS011;20941;42.408;25.634;2022-08-19T07:18:38;8.50;;;7.70;;
34711;SDS011;20941;42.408;25.634;2022-08-19T07:21:08;15.00;;;8.13;;
34711;SDS011;20941;42.408;25.634;2022-08-19T07:23:36;14.35;;;8.82;;
34711;SDS011;20941;42.408;25.634;2022-08-19T07:26:37;11.68;;;7.63;;
34711;SDS011;20941;42.408;25.634;2022-08-19T07:28:56;24.42;;;8.55;;
34711;SDS011;20941;42.408;25.634;2022-08-19T07:31:23;11.68;;;8.32;;
34711;SDS011;20941;42.408;25.634;2022-08-19T07:33:50;10.05;;;7.50;;
34711;SDS011;20941;42.408;25.634;2022-08-19T07:36:18;13.02;;;8.35;;
34711;SDS011;20941;42.408;25.634;2022-08-19T07:38:48;11.75;;;7.80;;
34711;SDS011;20941;42.408;25.634;2022-08-19T07:41:16;16.92;;;8.15;;
34711;SDS011;20941;42.408;25.634;2022-08-19T07:43:44;13.75;;;7.68;;
34711;SDS011;20941;42.408;25.634;2022-08-19T07:46:11;39.47;;;11.18;;
34711;SDS011;20941;42.408;25.634;2022-08-19T07:48:38;9.15;;;7.80;;
34711;SDS011;20941;42.408;25.634;2022-08-19T07:51:06;24.70;;;9.55;;
34711;SDS011;20941;42.408;25.634;2022-08-19T07:53:33;14.38;;;8.00;;
34711;SDS011;20941;42.408;25.634;2022-08-19T07:56:00;24.25;;;8.02;;
34711;SDS011;20941;42.408;25.634;2022-08-19T07:58:27;12.70;;;7.78;;
34711;SDS011;20941;42.408;25.634;2022-08-19T08:00:53;10.43;;;7.63;;
34711;SDS011;20941;42.408;25.634;2022-08-19T08:03:20;8.43;;;7.35;;
34711;SDS011;20941;42.408;25.634;2022-08-19T08:06:10;7.93;;;6.93;;
34711;SDS011;20941;42.408;25.634;2022-08-19T08:11:39;25.95;;;9.27;;
34711;SDS011;20941;42.408;25.634;2022-08-19T08:14:07;18.80;;;8.25;;
34711;SDS011;20941;42.408;25.634;2022-08-19T08:16:37;10.23;;;7.72;;
34711;SDS011;20941;42.408;25.634;2022-08-19T08:19:04;8.88;;;7.40;;
34711;SDS011;20941;42.408;25.634;2022-08-19T08:21:31;10.75;;;7.75;;
34711;SDS011;20941;42.408;25.634;2022-08-19T08:23:57;10.27;;;7.28;;
34711;SDS011;20941;42.408;25.634;2022-08-19T08:26:23;21.40;;;8.98;;
34711;SDS011;20941;42.408;25.634;2022-08-19T08:28:49;17.67;;;7.72;;
34711;SDS011;20941;42.408;25.634;2022-08-19T08:31:16;14.57;;;7.30;;
34711;SDS011;20941;42.408;25.634;2022-08-19T08:33:43;10.65;;;6.72;;
34711;SDS011;20941;42.408;25.634;2022-08-19T08:36:09;12.40;;;6.63;;
34711;SDS011;20941;42.408;25.634;2022-08-19T08:38:36;6.85;;;6.15;;
34711;SDS011;20941;42.408;25.634;2022-08-19T08:41:05;9.98;;;6.78;;
34711;SDS011;20941;42.408;25.634;2022-08-19T08:43:40;10.75;;;6.97;;
34711;SDS011;20941;42.408;25.634;2022-08-19T08:46:20;17.88;;;7.97;;
34711;SDS011;20941;42.408;25.634;2022-08-19T08:49:04;12.18;;;7.07;;
34711;SDS011;20941;42.408;25.634;2022-08-19T08:51:34;8.57;;;6.93;;
34711;SDS011;20941;42.408;25.634;2022-08-19T08:54:07;9.68;;;6.78;;
34711;SDS011;20941;42.408;25.634;2022-08-19T08:56:37;9.15;;;6.72;;
34711;SDS011;20941;42.408;25.634;2022-08-19T08:59:05;7.50;;;6.60;;
34711;SDS011;20941;42.408;25.634;2022-08-19T09:01:37;8.77;;;6.47;;
34711;SDS011;20941;42.408;25.634;2022-08-19T09:04:04;12.15;;;7.00;;
34711;SDS011;20941;42.408;25.634;2022-08-19T09:07:18;9.52;;;6.50;;
34711;SDS011;20941;42.408;25.634;2022-08-19T09:09:34;8.98;;;6.68;;
34711;SDS011;20941;42.408;25.634;2022-08-19T09:12:06;8.02;;;6.32;;
34711;SDS011;20941;42.408;25.634;2022-08-19T09:14:49;10.63;;;7.15;;
34711;SDS011;20941;42.408;25.634;2022-08-19T09:17:26;8.73;;;7.15;;
34711;SDS011;20941;42.408;25.634;2022-08-19T09:20:00;13.95;;;7.53;;
34711;SDS011;20941;42.408;25.634;2022-08-19T09:22:33;15.18;;;6.95;;
34711;SDS011;20941;42.408;25.634;2022-08-19T09:24:59;9.25;;;6.65;;
34711;SDS011;20941;42.408;25.634;2022-08-19T09:27:26;7.22;;;5.40;;
34711;SDS011;20941;42.408;25.634;2022-08-19T09:29:52;5.88;;;5.28;;
34711;SDS011;20941;42.408;25.634;2022-08-19T09:32:19;6.05;;;5.18;;
34711;SDS011;20941;42.408;25.634;2022-08-19T09:34:46;8.45;;;5.28;;
34711;SDS011;20941;42.408;25.634;2022-08-19T09:37:11;6.72;;;5.70;;
34711;SDS011;20941;42.408;25.634;2022-08-19T09:39:38;7.35;;;5.50;;
34711;SDS011;20941;42.408;25.634;2022-08-19T09:42:05;5.82;;;5.05;;
34711;SDS011;20941;42.408;25.634;2022-08-19T09:44:36;6.22;;;5.55;;
34711;SDS011;20941;42.408;25.634;2022-08-19T09:47:05;5.78;;;5.18;;
34711;SDS011;20941;42.408;25.634;2022-08-19T09:49:32;7.32;;;5.57;;
34711;SDS011;20941;42.408;25.634;2022-08-19T09:51:58;5.78;;;4.55;;
34711;SDS011;20941;42.408;25.634;2022-08-19T09:54:24;5.57;;;5.07;;
34711;SDS011;20941;42.408;25.634;2022-08-19T09:56:51;4.72;;;4.32;;
34711;SDS011;20941;42.408;25.634;2022-08-19T09:59:20;5.53;;;4.57;;
34711;SDS011;20941;42.408;25.634;2022-08-19T10:01:46;5.15;;;4.65;;
34711;SDS011;20941;42.408;25.634;2022-08-19T10:04:12;4.85;;;4.45;;
34711;SDS011;20941;42.408;25.634;2022-08-19T10:06:38;6.18;;;4.15;;
34711;SDS011;20941;42.408;25.634;2022-08-19T10:09:07;6.03;;;4.57;;
34711;SDS011;20941;42.408;25.634;2022-08-19T10:11:35;7.75;;;5.18;;
34711;SDS011;20941;42.408;25.634;2022-08-19T10:14:04;6.35;;;4.75;;
34711;SDS011;20941;42.408;25.634;2022-08-19T10:16:33;7.13;;;5.05;;
34711;SDS011;20941;42.408;25.634;2022-08-19T10:19:00;5.47;;;4.82;;
34711;SDS011;20941;42.408;25.634;2022-08-19T10:21:28;4.80;;;4.40;;
34711;SDS011;20941;42.408;25.634;2022-08-19T10:23:56;5.43;;;4.93;;
34711;SDS011;20941;42.408;25.634;2022-08-19T10:26:25;6.70;;;4.82;;
34711;SDS011;20941;42.408;25.634;2022-08-19T10:28:53;9.02;;;4.30;;
34711;SDS011;20941;42.408;25.634;2022-08-19T10:31:24;8.02;;;4.47;;
34711;SDS011;20941;42.408;25.634;2022-08-19T10:33:54;4.80;;;4.18;;
34711;SDS011;20941;42.408;25.634;2022-08-19T10:36:22;7.22;;;4.70;;
34711;SDS011;20941;42.408;25.634;2022-08-19T10:38:51;3.65;;;3.08;;
34711;SDS011;20941;42.408;25.634;2022-08-19T10:41:20;7.10;;;5.07;;
34711;SDS011;20941;42.408;25.634;2022-08-19T10:43:53;4.82;;;4.43;;
34711;SDS011;20941;42.408;25.634;2022-08-19T10:46:21;4.80;;;4.32;;
34711;SDS011;20941;42.408;25.634;2022-08-19T10:48:49;4.53;;;4.13;;
34711;SDS011;20941;42.408;25.634;2022-08-19T10:51:15;7.60;;;5.10;;
34711;SDS011;20941;42.408;25.634;2022-08-19T10:54:00;6.25;;;4.90;;
34711;SDS011;20941;42.408;25.634;2022-08-19T10:56:26;4.93;;;4.47;;
34711;SDS011;20941;42.408;25.634;2022-08-19T10:59:11;3.60;;;3.30;;
34711;SDS011;20941;42.408;25.634;2022-08-19T11:01:38;5.93;;;4.22;;
34711;SDS011;20941;42.408;25.634;2022-08-19T11:04:05;13.25;;;5.72;;
34711;SDS011;20941;42.408;25.634;2022-08-19T11:06:33;5.43;;;4.50;;
34711;SDS011;20941;42.408;25.634;2022-08-19T11:08:59;3.08;;;2.55;;
34711;SDS011;20941;42.408;25.634;2022-08-19T11:11:25;4.55;;;4.15;;
34711;SDS011;20941;42.408;25.634;2022-08-19T11:13:51;4.35;;;3.85;;
34711;SDS011;20941;42.408;25.634;2022-08-19T11:16:22;4.75;;;4.28;;
34711;SDS011;20941;42.408;25.634;2022-08-19T11:18:51;5.32;;;4.82;;
34711;SDS011;20941;42.408;25.634;2022-08-19T11:21:19;4.88;;;4.47;;
34711;SDS011;20941;42.408;25.634;2022-08-19T11:23:48;5.40;;;4.85;;
34711;SDS011;20941;42.408;25.634;2022-08-19T11:26:15;9.90;;;4.63;;
34711;SDS011;20941;42.408;25.634;2022-08-19T11:28:41;5.03;;;4.50;;
34711;SDS011;20941;42.408;25.634;2022-08-19T11:31:15;6.82;;;4.32;;
34711;SDS011;20941;42.408;25.634;2022-08-19T11:33:42;6.32;;;4.35;;
34711;SDS011;20941;42.408;25.634;2022-08-19T11:36:08;5.18;;;4.20;;
34711;SDS011;20941;42.408;25.634;2022-08-19T11:38:34;4.90;;;3.42;;
34711;SDS011;20941;42.408;25.634;2022-08-19T11:41:06;4.30;;;3.67;;
34711;SDS011;20941;42.408;25.634;2022-08-19T11:43:32;5.10;;;4.28;;
34711;SDS011;20941;42.408;25.634;2022-08-19T11:45:59;3.50;;;3.20;;
34711;SDS011;20941;42.408;25.634;2022-08-19T11:48:28;3.90;;;3.60;;
34711;SDS011;20941;42.408;25.634;2022-08-19T11:50:53;4.47;;;3.85;;
34711;SDS011;20941;42.408;25.634;2022-08-19T11:53:22;8.45;;;4.20;;
34711;SDS011;20941;42.408;25.634;2022-08-19T11:55:48;4.43;;;3.97;;
34711;SDS011;20941;42.408;25.634;2022-08-19T11:58:14;5.00;;;3.80;;
34711;SDS011;20941;42.408;25.634;2022-08-19T12:00:42;10.07;;;4.57;;
34711;SDS011;20941;42.408;25.634;2022-08-19T12:03:10;4.97;;;4.45;;
34711;SDS011;20941;42.408;25.634;2022-08-19T12:05:37;8.55;;;4.55;;
34711;SDS011;20941;42.408;25.634;2022-08-19T12:08:04;6.55;;;4.70;;
34711;SDS011;20941;42.408;25.634;2022-08-19T12:10:29;4.72;;;3.60;;
34711;SDS011;20941;42.408;25.634;2022-08-19T12:12:54;3.75;;;3.45;;
34711;SDS011;20941;42.408;25.634;2022-08-19T12:15:20;4.60;;;4.00;;
34711;SDS011;20941;42.408;25.634;2022-08-19T12:17:46;5.13;;;3.50;;
34711;SDS011;20941;42.408;25.634;2022-08-19T12:20:11;4.90;;;4.22;;
34711;SDS011;20941;42.408;25.634;2022-08-19T12:22:38;5.90;;;4.18;;
34711;SDS011;20941;42.408;25.634;2022-08-19T12:25:09;4.32;;;3.75;;
34711;SDS011;20941;42.408;25.634;2022-08-19T12:27:36;4.68;;;4.28;;
34711;SDS011;20941;42.408;25.634;2022-08-19T12:30:04;4.28;;;3.85;;
34711;SDS011;20941;42.408;25.634;2022-08-19T12:32:32;4.40;;;4.00;;
34711;SDS011;20941;42.408;25.634;2022-08-19T12:34:57;4.43;;;3.72;;
34711;SDS011;20941;42.408;25.634;2022-08-19T12:37:23;4.70;;;3.50;;
34711;SDS011;20941;42.408;25.634;2022-08-19T12:39:48;4.18;;;3.78;;
34711;SDS011;20941;42.408;25.634;2022-08-19T12:42:16;4.75;;;4.25;;
34711;SDS011;20941;42.408;25.634;2022-08-19T12:44:44;4.53;;;4.10;;
34711;SDS011;20941;42.408;25.634;2022-08-19T12:47:11;3.90;;;3.60;;
34711;SDS011;20941;42.408;25.634;2022-08-19T12:49:38;3.97;;;3.58;;
34711;SDS011;20941;42.408;25.634;2022-08-19T12:52:05;6.60;;;4.50;;
34711;SDS011;20941;42.408;25.634;2022-08-19T12:54:32;4.25;;;3.85;;
34711;SDS011;20941;42.408;25.634;2022-08-19T12:56:58;4.22;;;3.85;;
34711;SDS011;20941;42.408;25.634;2022-08-19T12:59:25;4.28;;;3.70;;
34711;SDS011;20941;42.408;25.634;2022-08-19T13:01:51;4.35;;;3.75;;
34711;SDS011;20941;42.408;25.634;2022-08-19T13:04:17;3.85;;;3.50;;
34711;SDS011;20941;42.408;25.634;2022-08-19T13:06:43;4.85;;;4.38;;
34711;SDS011;20941;42.408;25.634;2022-08-19T13:09:09;4.38;;;3.97;;
34711;SDS011;20941;42.408;25.634;2022-08-19T13:11:36;3.90;;;3.47;;
34711;SDS011;20941;42.408;25.634;2022-08-19T13:14:02;5.22;;;3.63;;
34711;SDS011;20941;42.408;25.634;2022-08-19T13:16:29;4.10;;;3.35;;
34711;SDS011;20941;42.408;25.634;2022-08-19T13:18:55;5.15;;;3.88;;
34711;SDS011;20941;42.408;25.634;2022-08-19T13:21:23;4.55;;;3.60;;
34711;SDS011;20941;42.408;25.634;2022-08-19T13:23:51;3.55;;;3.25;;
34711;SDS011;20941;42.408;25.634;2022-08-19T13:26:17;6.53;;;3.95;;
34711;SDS011;20941;42.408;25.634;2022-08-19T13:28:44;6.82;;;3.97;;
34711;SDS011;20941;42.408;25.634;2022-08-19T13:31:30;3.95;;;3.65;;
34711;SDS011;20941;42.408;25.634;2022-08-19T13:34:16;3.72;;;3.42;;
34711;SDS011;20941;42.408;25.634;2022-08-19T13:36:44;4.25;;;3.78;;
34711;SDS011;20941;42.408;25.634;2022-08-19T13:39:10;18.52;;;5.35;;
34711;SDS011;20941;42.408;25.634;2022-08-19T13:41:37;4.28;;;3.92;;
34711;SDS011;20941;42.408;25.634;2022-08-19T13:44:12;7.43;;;4.40;;
34711;SDS011;20941;42.408;25.634;2022-08-19T13:46:39;5.40;;;4.03;;
34711;SDS011;20941;42.408;25.634;2022-08-19T13:49:05;4.20;;;3.83;;
34711;SDS011;20941;42.408;25.634;2022-08-19T13:51:30;5.18;;;3.90;;
34711;SDS011;20941;42.408;25.634;2022-08-19T13:53:56;6.47;;;4.43;;
34711;SDS011;20941;42.408;25.634;2022-08-19T13:56:21;4.05;;;3.75;;
34711;SDS011;20941;42.408;25.634;2022-08-19T13:58:47;4.32;;;3.63;;
34711;SDS011;20941;42.408;25.634;2022-08-19T14:01:18;4.07;;;3.65;;
34711;SDS011;20941;42.408;25.634;2022-08-19T14:03:45;4.15;;;3.75;;
34711;SDS011;20941;42.408;25.634;2022-08-19T14:06:10;3.90;;;3.60;;
34711;SDS011;20941;42.408;25.634;2022-08-19T14:08:36;4.75;;;4.00;;
34711;SDS011;20941;42.408;25.634;2022-08-19T14:11:04;5.50;;;4.18;;
34711;SDS011;20941;42.408;25.634;2022-08-19T14:13:30;3.97;;;3.58;;
34711;SDS011;20941;42.408;25.634;2022-08-19T14:15:57;4.25;;;3.92;;
34711;SDS011;20941;42.408;25.634;2022-08-19T14:18:23;3.88;;;3.58;;
34711;SDS011;20941;42.408;25.634;2022-08-19T14:20:49;3.67;;;3.40;;
34711;SDS011;20941;42.408;25.634;2022-08-19T14:23:15;3.72;;;3.42;;
34711;SDS011;20941;42.408;25.634;2022-08-19T14:25:41;4.57;;;4.07;;
34711;SDS011;20941;42.408;25.634;2022-08-19T14:28:07;3.75;;;3.38;;
34711;SDS011;20941;42.408;25.634;2022-08-19T14:30:33;4.20;;;3.78;;
34711;SDS011;20941;42.408;25.634;2022-08-19T14:33:02;3.78;;;3.47;;
34711;SDS011;20941;42.408;25.634;2022-08-19T14:35:28;4.15;;;3.83;;
34711;SDS011;20941;42.408;25.634;2022-08-19T14:37:54;3.70;;;3.38;;